createdAt,value
2023-04-19T00:03:30.793Z,68.40
2023-04-19T00:08:34.413Z,99.90
2023-04-19T00:13:37.951Z,99.90
2023-04-19T00:18:43.145Z,99.90
2023-04-19T00:23:46.466Z,99.90
2023-04-19T00:28:49.827Z,99.90
2023-04-19T00:33:54.491Z,99.90
2023-04-19T00:38:57.831Z,99.90
2023-04-19T00:44:01.611Z,99.90
2023-04-19T00:49:06.735Z,99.90
2023-04-19T00:54:10.512Z,99.90
2023-04-19T00:59:15.754Z,99.90
2023-04-19T01:04:20.777Z,1.00
2023-04-19T01:09:24.407Z,1.00
2023-04-19T01:14:27.775Z,1.00
2023-04-19T01:19:32.822Z,99.90
2023-04-19T01:24:37.625Z,99.90
2023-04-19T01:29:41.237Z,1.00
2023-04-19T01:34:44.656Z,1.00
2023-04-19T01:39:49.385Z,19.60
2023-04-19T01:44:52.678Z,99.90
2023-04-19T01:49:56.514Z,99.90
2023-04-19T01:55:01.649Z,1.00
2023-04-19T02:00:08.809Z,1.00
2023-04-19T02:05:17.762Z,66.70
2023-04-19T02:10:22.794Z,36.80
2023-04-19T02:15:26.236Z,1.00
2023-04-19T02:20:29.994Z,1.00
2023-04-19T02:25:34.756Z,99.90
2023-04-19T02:30:38.390Z,99.90
2023-04-19T02:35:41.714Z,1.00
2023-04-19T02:40:46.447Z,1.00
2023-04-19T02:45:49.864Z,1.00
2023-04-19T02:50:53.241Z,1.00
2023-04-19T02:55:58.770Z,50.90
2023-04-19T03:01:02.526Z,99.90
2023-04-19T03:06:06.438Z,99.90
2023-04-19T03:11:12.578Z,1.00
2023-04-19T03:16:16.455Z,1.00
2023-04-19T03:21:21.155Z,99.90
2023-04-19T03:26:30.872Z,1.00
2023-04-19T03:31:34.692Z,99.90
2023-04-19T03:36:38.272Z,98.70
2023-04-19T03:41:43.327Z,99.90
2023-04-19T03:46:57.164Z,1.00
2023-04-19T03:52:04.877Z,43.40
2023-04-19T03:57:14.723Z,99.90
2023-04-19T04:02:19.314Z,99.90
2023-04-19T04:07:23.332Z,1.00
2023-04-19T04:12:29.114Z,1.00
2023-04-19T04:17:34.295Z,99.90
2023-04-19T04:22:43.663Z,99.90
2023-04-19T04:27:52.366Z,99.90
2023-04-19T04:32:59.166Z,1.00
2023-04-19T04:38:14.061Z,1.00
2023-04-19T04:43:24.231Z,1.00
2023-04-19T04:48:28.271Z,1.00
2023-04-19T04:53:31.724Z,1.00
2023-04-19T04:58:38.106Z,74.50
2023-04-19T05:03:44.923Z,99.90
2023-04-19T05:08:53.426Z,99.90
2023-04-19T05:14:07.001Z,99.90
2023-04-19T05:19:11.285Z,99.90
2023-04-19T05:24:20.980Z,99.90
2023-04-19T05:29:26.849Z,99.90
2023-04-19T05:34:31.835Z,99.90
2023-04-19T05:39:36.829Z,99.90
2023-04-19T05:44:41.499Z,99.90
2023-04-19T05:49:45.142Z,99.90
2023-04-19T05:55:06.153Z,99.90
2023-04-19T06:00:13.606Z,99.90
2023-04-19T06:05:17.123Z,99.90
2023-04-19T06:10:20.704Z,99.90
2023-04-19T06:15:26.018Z,99.90
2023-04-19T06:20:29.704Z,1.00
2023-04-19T06:25:33.193Z,1.00
2023-04-19T06:30:37.982Z,99.90
2023-04-19T06:35:41.376Z,99.90
2023-04-19T06:40:44.666Z,99.90
2023-04-19T06:45:49.402Z,99.90
2023-04-19T06:50:52.738Z,99.90
2023-04-19T06:56:01.107Z,99.90
2023-04-19T07:01:06.695Z,99.90
2023-04-19T07:06:09.939Z,99.90
2023-04-19T07:11:13.165Z,99.90
2023-04-19T07:16:17.793Z,1.00
2023-04-19T07:21:21.146Z,99.90
2023-04-19T07:26:24.412Z,99.90
2023-04-19T07:31:29.484Z,1.00
2023-04-19T07:36:35.018Z,95.50
2023-04-19T07:41:38.345Z,96.80
2023-04-19T07:46:44.300Z,1.00
2023-04-19T07:51:47.576Z,1.00
2023-04-19T07:56:51.288Z,1.00
2023-04-19T08:01:55.986Z,1.00
2023-04-19T08:06:59.654Z,1.00
2023-04-19T08:12:02.971Z,1.00
2023-04-19T08:17:23.946Z,99.90
2023-04-19T08:22:29.332Z,1.00
2023-04-19T08:27:32.547Z,1.00
2023-04-19T08:32:37.297Z,1.00
2023-04-19T08:37:40.584Z,1.00
2023-04-19T08:42:44.040Z,99.90
2023-04-19T08:48:00.061Z,99.90
2023-04-19T08:53:23.230Z,1.00
2023-04-19T08:58:45.690Z,1.00
2023-04-19T09:09:33.237Z,1.00
2023-04-19T09:14:57.866Z,1.00
2023-04-19T09:20:07.133Z,99.90
2023-04-19T09:35:41.401Z,12.30
2023-04-19T09:40:47.731Z,99.90
2023-04-19T09:45:51.110Z,99.90
2023-04-19T09:51:01.336Z,61.70
2023-04-19T09:56:12.886Z,99.90
2023-04-19T10:01:17.460Z,99.90
2023-04-19T10:11:37.195Z,99.90
2023-04-19T10:16:40.917Z,99.90
2023-04-19T10:21:47.345Z,99.90
2023-04-19T10:27:11.494Z,99.90
2023-04-19T10:32:15.102Z,99.90
2023-04-19T10:37:24.995Z,1.00
2023-04-19T10:43:11.011Z,1.00
2023-04-19T10:48:34.151Z,99.90
2023-04-19T10:53:52.947Z,21.90
2023-04-19T10:59:24.369Z,20.80
2023-04-19T11:05:11.540Z,99.90
2023-04-19T11:10:30.210Z,99.90
2023-04-19T11:15:33.476Z,99.90
2023-04-19T11:20:36.701Z,1.00
2023-04-19T11:25:41.906Z,1.00
2023-04-19T11:30:45.390Z,99.90
2023-04-19T11:35:48.616Z,1.00
2023-04-19T11:41:01.429Z,1.00
2023-04-19T11:46:07.417Z,1.00
2023-04-19T11:51:11.297Z,99.90
2023-04-19T11:56:16.891Z,99.90
2023-04-19T12:01:21.189Z,1.00
2023-04-19T12:06:25.828Z,1.00
2023-04-19T12:11:45.207Z,1.00
2023-04-19T12:17:03.630Z,24.10
2023-04-19T12:22:14.807Z,1.00
2023-04-19T12:27:20.327Z,99.90
2023-04-19T12:32:23.729Z,1.00
2023-04-19T12:37:27.512Z,1.00
2023-04-19T12:42:32.189Z,1.00
2023-04-19T12:47:35.438Z,1.00
2023-04-19T12:52:38.676Z,1.00
2023-04-19T12:57:43.625Z,1.00
2023-04-19T13:02:48.502Z,1.00
2023-04-19T13:07:52.043Z,1.00
2023-04-19T13:12:57.228Z,1.00
2023-04-19T13:18:00.518Z,1.00
2023-04-19T13:23:03.743Z,1.00
2023-04-19T13:28:08.632Z,1.00
2023-04-19T13:33:11.971Z,1.00
2023-04-19T13:38:15.350Z,1.00
2023-04-19T13:43:19.942Z,1.00
2023-04-19T13:48:23.207Z,1.00
2023-04-19T13:53:29.207Z,1.00
2023-04-19T13:58:33.938Z,1.00
2023-04-19T14:03:37.295Z,1.00
2023-04-19T14:08:40.639Z,1.00
2023-04-19T14:13:45.438Z,1.00
2023-04-19T14:18:48.697Z,1.00
2023-04-19T14:23:51.968Z,1.00
2023-04-19T14:28:56.598Z,1.00
2023-04-19T14:34:00.630Z,1.00
2023-04-19T14:39:03.900Z,1.00
2023-04-19T14:44:08.516Z,1.00
2023-04-19T14:49:11.811Z,1.00
2023-04-19T14:54:15.173Z,99.90
2023-04-19T14:59:19.904Z,1.00
2023-04-19T15:04:23.366Z,99.90
2023-04-19T15:09:26.733Z,99.90
2023-04-19T15:14:31.401Z,99.90
2023-04-19T15:19:34.730Z,99.90
2023-04-19T15:24:38.007Z,99.90
2023-04-19T15:29:42.668Z,99.90
2023-04-19T15:34:46.135Z,99.90
2023-04-19T15:39:50.340Z,99.90
2023-04-19T15:44:55.070Z,99.90
2023-04-19T15:49:59.030Z,99.90
2023-04-19T15:55:03.753Z,99.90
2023-04-19T16:00:10.321Z,99.90
2023-04-19T16:05:17.315Z,99.90
2023-04-19T16:10:21.161Z,99.90
2023-04-19T16:15:26.294Z,99.90
2023-04-19T16:20:29.544Z,99.90
2023-04-19T16:25:34.857Z,99.90
2023-04-19T16:30:40.264Z,99.90
2023-04-19T16:35:45.295Z,99.90
2023-04-19T16:40:49.558Z,99.90
2023-04-19T16:45:54.799Z,99.90
2023-04-19T16:50:58.145Z,99.90
2023-04-19T16:56:03.720Z,99.90
2023-04-19T17:01:09.859Z,99.90
2023-04-19T17:06:15.347Z,99.90
2023-04-19T17:11:18.563Z,99.90
2023-04-19T17:16:23.191Z,99.90
2023-04-19T17:21:27.601Z,99.90
2023-04-19T17:26:30.879Z,99.90
2023-04-19T17:31:35.511Z,99.90
2023-04-19T17:36:38.903Z,99.90
2023-04-19T17:41:43.979Z,99.90
2023-04-19T17:46:48.789Z,99.90
2023-04-19T17:51:53.216Z,99.90
2023-04-19T17:56:59.453Z,99.90
2023-04-19T18:02:04.717Z,99.90
2023-04-19T18:07:08.076Z,99.90
2023-04-19T18:12:11.427Z,99.90
2023-04-19T18:17:16.080Z,99.90
2023-04-19T18:22:19.475Z,99.90
2023-04-19T18:27:22.728Z,99.90
2023-04-19T18:32:28.780Z,99.90
2023-04-19T18:37:32.262Z,99.90
2023-04-19T18:42:35.661Z,99.90
2023-04-19T18:47:40.394Z,99.90
2023-04-19T18:52:43.703Z,99.90
2023-04-19T18:57:47.038Z,99.90
2023-04-19T19:02:52.897Z,99.90
2023-04-19T19:07:56.729Z,99.90
2023-04-19T19:13:00.179Z,99.90
2023-04-19T19:18:05.711Z,99.90
2023-04-19T19:23:09.036Z,99.90
2023-04-19T19:28:12.574Z,99.90
2023-04-19T19:33:17.926Z,99.90
2023-04-19T19:38:21.170Z,99.90
2023-04-19T19:43:24.551Z,99.90
2023-04-19T19:48:30.370Z,99.90
2023-04-19T19:53:34.017Z,99.90
2023-04-19T19:58:49.445Z,99.90
2023-04-19T20:03:57.311Z,99.90
2023-04-19T20:09:01.468Z,99.90
2023-04-19T20:14:04.906Z,99.90
2023-04-19T20:19:11.781Z,99.90
2023-04-19T20:24:15.318Z,99.90
2023-04-19T20:29:18.787Z,99.90
2023-04-19T20:34:23.592Z,99.90
2023-04-19T20:39:26.923Z,99.90
2023-04-19T20:44:30.211Z,99.90
2023-04-19T20:49:34.876Z,99.90
2023-04-19T20:54:38.954Z,99.90
2023-04-19T20:59:42.278Z,99.90
2023-04-19T21:04:46.985Z,99.90
2023-04-19T21:09:50.297Z,99.90
2023-04-19T21:14:53.705Z,99.90
2023-04-19T21:19:58.345Z,99.90
2023-04-19T21:25:01.630Z,99.90
2023-04-19T21:30:04.784Z,99.90
2023-04-19T21:35:10.598Z,99.90
2023-04-19T21:40:14.375Z,99.90
2023-04-19T21:45:17.802Z,99.90
2023-04-19T21:50:22.638Z,99.90
2023-04-19T21:55:26.105Z,99.90
2023-04-19T22:00:29.336Z,99.90
2023-04-19T22:05:33.976Z,99.90
2023-04-19T22:10:37.891Z,99.90
2023-04-19T22:15:42.932Z,1.00
2023-04-19T22:20:49.908Z,1.00
2023-04-19T22:25:53.317Z,1.00
2023-04-19T22:30:57.083Z,1.00
2023-04-19T22:36:01.820Z,1.00
2023-04-19T22:41:05.865Z,1.00
2023-04-19T22:46:09.295Z,1.00
2023-04-19T22:51:14.072Z,1.00
2023-04-19T22:56:17.911Z,1.00
2023-04-19T23:01:21.221Z,1.00
2023-04-19T23:06:26.017Z,1.00
2023-04-19T23:11:30.017Z,1.00
2023-04-19T23:16:33.460Z,1.00
2023-04-19T23:21:38.065Z,99.90
2023-04-19T23:26:41.376Z,99.90
2023-04-19T23:31:44.709Z,99.90
2023-04-19T23:36:49.365Z,99.90
2023-04-19T23:41:52.531Z,99.90
2023-04-19T23:46:55.666Z,1.00
2023-04-19T23:52:00.190Z,99.90
2023-04-19T23:57:03.339Z,99.90
